DAOO

Es Senia Airport

Oran, Algeria
METAR DAOO 271130Z 34012KT 320V040 9999 FEW020 25/14 Q1014
Observed Flight Rules
May-27 @ 11:30 UTC (34 minutes ago) Visual Flight Rules
Wind Visibility Clouds
340° at 12 knots 10,000+ meters
  • Few at 2,000' AGL
Temperatures Readings
Current 25°C / 77°F
Dewpoint 14°C / 57°F
Humidity 51%
Altimeter 29.94" Hg
Pressure 1014 hPa
Elevation 90
METAR DAOO 271130Z 34012KT 320V040 9999 FEW020 25/14 Q1014
Observed Flight Rules
May-27 @ 11:30 UTC
(34 minutes ago)
VFR
Wind Visibility
340° at 12 knots 10,000+ meters
Clouds
  • Few at 2,000' AGL
Temperature Dewpoint
25°C / 77°F 14°C / 57°F
Humidity Altimeter Pressure
51% 29.94" Hg 1014 hPa